sensor_id;sensor_type;location;lat;lon;timestamp;P1;durP1;ratioP1;P2;durP2;ratioP2
67140;SDS011;54058;52.010;5.546;2023-04-24T00:00:22;2.42;;;1.70;;
67140;SDS011;54058;52.010;5.546;2023-04-24T00:02:48;4.45;;;1.63;;
67140;SDS011;54058;52.010;5.546;2023-04-24T00:05:14;3.90;;;1.90;;
67140;SDS011;54058;52.010;5.546;2023-04-24T00:07:44;1.65;;;1.55;;
67140;SDS011;54058;52.010;5.546;2023-04-24T00:10:10;3.10;;;1.60;;
67140;SDS011;54058;52.010;5.546;2023-04-24T00:12:37;2.17;;;1.48;;
67140;SDS011;54058;52.010;5.546;2023-04-24T00:15:02;2.65;;;1.40;;
67140;SDS011;54058;52.010;5.546;2023-04-24T00:17:28;1.73;;;1.63;;
67140;SDS011;54058;52.010;5.546;2023-04-24T00:19:54;2.85;;;1.60;;
67140;SDS011;54058;52.010;5.546;2023-04-24T00:22:28;1.88;;;1.10;;
67140;SDS011;54058;52.010;5.546;2023-04-24T00:24:54;3.72;;;1.20;;
67140;SDS011;54058;52.010;5.546;2023-04-24T00:27:20;3.55;;;1.20;;
67140;SDS011;54058;52.010;5.546;2023-04-24T00:29:45;3.55;;;1.10;;
67140;SDS011;54058;52.010;5.546;2023-04-24T00:32:11;1.52;;;1.13;;
67140;SDS011;54058;52.010;5.546;2023-04-24T00:34:37;3.75;;;1.13;;
67140;SDS011;54058;52.010;5.546;2023-04-24T00:37:02;1.40;;;1.30;;
67140;SDS011;54058;52.010;5.546;2023-04-24T00:39:28;1.00;;;0.95;;
67140;SDS011;54058;52.010;5.546;2023-04-24T00:41:54;5.20;;;1.30;;
67140;SDS011;54058;52.010;5.546;2023-04-24T00:44:20;1.20;;;1.20;;
67140;SDS011;54058;52.010;5.546;2023-04-24T00:46:46;1.30;;;1.20;;
67140;SDS011;54058;52.010;5.546;2023-04-24T00:49:16;2.50;;;1.38;;
67140;SDS011;54058;52.010;5.546;2023-04-24T00:51:43;3.45;;;1.13;;
67140;SDS011;54058;52.010;5.546;2023-04-24T00:54:11;1.63;;;1.52;;
67140;SDS011;54058;52.010;5.546;2023-04-24T00:56:37;2.58;;;1.27;;
67140;SDS011;54058;52.010;5.546;2023-04-24T00:59:03;2.38;;;1.33;;
67140;SDS011;54058;52.010;5.546;2023-04-24T01:01:29;1.20;;;1.10;;
67140;SDS011;54058;52.010;5.546;2023-04-24T01:03:55;1.92;;;1.17;;
67140;SDS011;54058;52.010;5.546;2023-04-24T01:06:22;1.60;;;1.00;;
67140;SDS011;54058;52.010;5.546;2023-04-24T01:08:52;1.10;;;1.00;;
67140;SDS011;54058;52.010;5.546;2023-04-24T01:11:17;1.50;;;0.60;;
67140;SDS011;54058;52.010;5.546;2023-04-24T01:13:43;1.75;;;0.75;;
67140;SDS011;54058;52.010;5.546;2023-04-24T01:16:10;1.50;;;0.70;;
67140;SDS011;54058;52.010;5.546;2023-04-24T01:18:35;1.65;;;0.60;;
67140;SDS011;54058;52.010;5.546;2023-04-24T01:21:02;1.25;;;0.50;;
67140;SDS011;54058;52.010;5.546;2023-04-24T01:25:54;1.02;;;0.50;;
67140;SDS011;54058;52.010;5.546;2023-04-24T01:28:20;0.50;;;0.50;;
67140;SDS011;54058;52.010;5.546;2023-04-24T01:30:46;0.40;;;0.40;;
67140;SDS011;54058;52.010;5.546;2023-04-24T01:33:14;1.30;;;0.60;;
67140;SDS011;54058;52.010;5.546;2023-04-24T01:35:39;1.20;;;0.50;;
67140;SDS011;54058;52.010;5.546;2023-04-24T01:38:05;1.58;;;0.55;;
67140;SDS011;54058;52.010;5.546;2023-04-24T01:40:31;1.13;;;0.70;;
67140;SDS011;54058;52.010;5.546;2023-04-24T01:42:57;1.40;;;1.10;;
67140;SDS011;54058;52.010;5.546;2023-04-24T01:45:24;0.85;;;0.85;;
67140;SDS011;54058;52.010;5.546;2023-04-24T01:47:50;0.70;;;0.70;;
67140;SDS011;54058;52.010;5.546;2023-04-24T01:50:16;0.90;;;0.63;;
67140;SDS011;54058;52.010;5.546;2023-04-24T01:52:42;0.77;;;0.77;;
67140;SDS011;54058;52.010;5.546;2023-04-24T01:55:08;0.70;;;0.70;;
67140;SDS011;54058;52.010;5.546;2023-04-24T01:57:34;0.70;;;0.70;;
67140;SDS011;54058;52.010;5.546;2023-04-24T02:00:01;0.88;;;0.80;;
67140;SDS011;54058;52.010;5.546;2023-04-24T02:02:29;0.90;;;0.90;;
67140;SDS011;54058;52.010;5.546;2023-04-24T02:04:55;2.17;;;1.30;;
67140;SDS011;54058;52.010;5.546;2023-04-24T02:07:21;3.27;;;1.20;;
67140;SDS011;54058;52.010;5.546;2023-04-24T02:09:47;1.70;;;1.50;;
67140;SDS011;54058;52.010;5.546;2023-04-24T02:12:14;3.63;;;1.60;;
67140;SDS011;54058;52.010;5.546;2023-04-24T02:14:40;2.03;;;1.92;;
67140;SDS011;54058;52.010;5.546;2023-04-24T02:17:07;1.95;;;1.80;;
67140;SDS011;54058;52.010;5.546;2023-04-24T02:19:33;2.67;;;2.33;;
67140;SDS011;54058;52.010;5.546;2023-04-24T02:21:58;2.72;;;2.03;;
67140;SDS011;54058;52.010;5.546;2023-04-24T02:24:24;2.58;;;2.05;;
67140;SDS011;54058;52.010;5.546;2023-04-24T02:26:49;5.93;;;3.08;;
67140;SDS011;54058;52.010;5.546;2023-04-24T02:29:15;2.85;;;2.30;;
67140;SDS011;54058;52.010;5.546;2023-04-24T02:31:41;3.03;;;2.42;;
67140;SDS011;54058;52.010;5.546;2023-04-24T02:34:06;3.83;;;2.40;;
67140;SDS011;54058;52.010;5.546;2023-04-24T02:36:32;6.82;;;3.15;;
67140;SDS011;54058;52.010;5.546;2023-04-24T02:38:58;3.92;;;2.53;;
67140;SDS011;54058;52.010;5.546;2023-04-24T02:41:23;4.85;;;3.33;;
67140;SDS011;54058;52.010;5.546;2023-04-24T02:43:49;4.13;;;3.42;;
67140;SDS011;54058;52.010;5.546;2023-04-24T02:46:15;3.80;;;3.30;;
67140;SDS011;54058;52.010;5.546;2023-04-24T02:48:40;6.07;;;3.70;;
67140;SDS011;54058;52.010;5.546;2023-04-24T02:51:06;6.35;;;3.63;;
67140;SDS011;54058;52.010;5.546;2023-04-24T02:53:32;4.85;;;4.05;;
67140;SDS011;54058;52.010;5.546;2023-04-24T02:55:57;4.85;;;3.55;;
67140;SDS011;54058;52.010;5.546;2023-04-24T02:58:23;5.53;;;3.50;;
67140;SDS011;54058;52.010;5.546;2023-04-24T03:00:52;5.95;;;3.72;;
67140;SDS011;54058;52.010;5.546;2023-04-24T03:03:19;6.15;;;3.67;;
67140;SDS011;54058;52.010;5.546;2023-04-24T03:05:45;4.90;;;3.67;;
67140;SDS011;54058;52.010;5.546;2023-04-24T03:08:11;5.55;;;3.53;;
67140;SDS011;54058;52.010;5.546;2023-04-24T03:10:36;4.00;;;3.17;;
67140;SDS011;54058;52.010;5.546;2023-04-24T03:13:02;4.82;;;3.83;;
67140;SDS011;54058;52.010;5.546;2023-04-24T03:15:27;3.42;;;3.13;;
67140;SDS011;54058;52.010;5.546;2023-04-24T03:17:53;5.78;;;3.58;;
67140;SDS011;54058;52.010;5.546;2023-04-24T03:20:18;3.80;;;3.42;;
67140;SDS011;54058;52.010;5.546;2023-04-24T03:22:44;4.13;;;3.63;;
67140;SDS011;54058;52.010;5.546;2023-04-24T03:25:10;3.53;;;3.22;;
67140;SDS011;54058;52.010;5.546;2023-04-24T03:27:35;4.25;;;3.42;;
67140;SDS011;54058;52.010;5.546;2023-04-24T03:30:02;5.77;;;4.00;;
67140;SDS011;54058;52.010;5.546;2023-04-24T03:32:28;8.02;;;4.43;;
67140;SDS011;54058;52.010;5.546;2023-04-24T03:34:53;6.35;;;5.25;;
67140;SDS011;54058;52.010;5.546;2023-04-24T03:37:19;6.45;;;5.00;;
67140;SDS011;54058;52.010;5.546;2023-04-24T03:39:45;7.75;;;5.55;;
67140;SDS011;54058;52.010;5.546;2023-04-24T03:42:10;7.75;;;5.57;;
67140;SDS011;54058;52.010;5.546;2023-04-24T03:44:37;7.93;;;5.75;;
67140;SDS011;54058;52.010;5.546;2023-04-24T03:47:03;10.77;;;6.68;;
67140;SDS011;54058;52.010;5.546;2023-04-24T03:49:29;9.68;;;6.03;;
67140;SDS011;54058;52.010;5.546;2023-04-24T03:51:54;9.63;;;6.65;;
67140;SDS011;54058;52.010;5.546;2023-04-24T03:54:20;9.77;;;6.80;;
67140;SDS011;54058;52.010;5.546;2023-04-24T03:56:45;15.90;;;8.30;;
67140;SDS011;54058;52.010;5.546;2023-04-24T03:59:11;10.27;;;8.48;;
67140;SDS011;54058;52.010;5.546;2023-04-24T04:01:37;12.10;;;8.52;;
67140;SDS011;54058;52.010;5.546;2023-04-24T04:04:03;14.50;;;7.80;;
67140;SDS011;54058;52.010;5.546;2023-04-24T04:06:29;12.38;;;7.55;;
67140;SDS011;54058;52.010;5.546;2023-04-24T04:08:55;11.57;;;7.65;;
67140;SDS011;54058;52.010;5.546;2023-04-24T04:11:21;16.08;;;8.52;;
67140;SDS011;54058;52.010;5.546;2023-04-24T04:13:47;13.02;;;8.20;;
67140;SDS011;54058;52.010;5.546;2023-04-24T04:16:13;10.93;;;8.30;;
67140;SDS011;54058;52.010;5.546;2023-04-24T04:18:41;11.38;;;8.00;;
67140;SDS011;54058;52.010;5.546;2023-04-24T04:21:07;12.25;;;9.13;;
67140;SDS011;54058;52.010;5.546;2023-04-24T04:23:33;12.80;;;8.02;;
67140;SDS011;54058;52.010;5.546;2023-04-24T04:25:58;8.88;;;7.18;;
67140;SDS011;54058;52.010;5.546;2023-04-24T04:28:24;10.68;;;6.22;;
67140;SDS011;54058;52.010;5.546;2023-04-24T04:30:51;10.30;;;6.73;;
67140;SDS011;54058;52.010;5.546;2023-04-24T04:33:20;11.05;;;7.10;;
67140;SDS011;54058;52.010;5.546;2023-04-24T04:35:47;8.85;;;6.53;;
67140;SDS011;54058;52.010;5.546;2023-04-24T04:38:17;11.00;;;6.57;;
67140;SDS011;54058;52.010;5.546;2023-04-24T04:40:45;10.50;;;6.07;;
67140;SDS011;54058;52.010;5.546;2023-04-24T04:43:11;6.65;;;5.40;;
67140;SDS011;54058;52.010;5.546;2023-04-24T04:45:38;6.90;;;5.28;;
67140;SDS011;54058;52.010;5.546;2023-04-24T04:48:06;7.60;;;5.95;;
67140;SDS011;54058;52.010;5.546;2023-04-24T04:50:37;5.85;;;4.90;;
67140;SDS011;54058;52.010;5.546;2023-04-24T04:53:03;6.63;;;4.38;;
67140;SDS011;54058;52.010;5.546;2023-04-24T04:55:29;7.13;;;4.25;;
67140;SDS011;54058;52.010;5.546;2023-04-24T04:57:55;5.13;;;3.95;;
67140;SDS011;54058;52.010;5.546;2023-04-24T05:00:21;3.50;;;3.20;;
67140;SDS011;54058;52.010;5.546;2023-04-24T05:02:49;7.57;;;3.70;;
67140;SDS011;54058;52.010;5.546;2023-04-24T05:05:14;6.35;;;3.17;;
67140;SDS011;54058;52.010;5.546;2023-04-24T05:07:42;7.75;;;3.55;;
67140;SDS011;54058;52.010;5.546;2023-04-24T05:10:07;3.65;;;2.97;;
67140;SDS011;54058;52.010;5.546;2023-04-24T05:12:33;4.72;;;3.30;;
67140;SDS011;54058;52.010;5.546;2023-04-24T05:14:59;3.72;;;3.00;;
67140;SDS011;54058;52.010;5.546;2023-04-24T05:17:24;3.70;;;3.20;;
67140;SDS011;54058;52.010;5.546;2023-04-24T05:19:50;4.38;;;2.40;;
67140;SDS011;54058;52.010;5.546;2023-04-24T05:22:16;3.30;;;3.00;;
67140;SDS011;54058;52.010;5.546;2023-04-24T05:24:44;3.20;;;2.70;;
67140;SDS011;54058;52.010;5.546;2023-04-24T05:27:10;5.22;;;2.70;;
67140;SDS011;54058;52.010;5.546;2023-04-24T05:29:36;2.50;;;2.10;;
67140;SDS011;54058;52.010;5.546;2023-04-24T05:32:01;3.95;;;2.50;;
67140;SDS011;54058;52.010;5.546;2023-04-24T05:34:27;3.22;;;2.83;;
67140;SDS011;54058;52.010;5.546;2023-04-24T05:36:53;3.35;;;2.20;;
67140;SDS011;54058;52.010;5.546;2023-04-24T05:39:18;6.07;;;2.50;;
67140;SDS011;54058;52.010;5.546;2023-04-24T05:41:44;8.95;;;2.55;;
67140;SDS011;54058;52.010;5.546;2023-04-24T05:44:10;2.53;;;2.33;;
67140;SDS011;54058;52.010;5.546;2023-04-24T05:46:36;2.45;;;2.25;;
67140;SDS011;54058;52.010;5.546;2023-04-24T05:49:01;2.17;;;1.98;;
67140;SDS011;54058;52.010;5.546;2023-04-24T05:51:27;3.33;;;2.42;;
67140;SDS011;54058;52.010;5.546;2023-04-24T05:53:53;2.92;;;2.58;;
67140;SDS011;54058;52.010;5.546;2023-04-24T05:56:19;2.30;;;2.10;;
67140;SDS011;54058;52.010;5.546;2023-04-24T05:58:45;4.90;;;2.17;;
67140;SDS011;54058;52.010;5.546;2023-04-24T06:01:11;2.08;;;1.80;;
67140;SDS011;54058;52.010;5.546;2023-04-24T06:03:39;3.75;;;2.00;;
67140;SDS011;54058;52.010;5.546;2023-04-24T06:06:06;5.93;;;2.20;;
67140;SDS011;54058;52.010;5.546;2023-04-24T06:08:32;1.70;;;1.60;;
67140;SDS011;54058;52.010;5.546;2023-04-24T06:10:57;2.05;;;1.70;;
67140;SDS011;54058;52.010;5.546;2023-04-24T06:13:23;2.58;;;1.80;;
67140;SDS011;54058;52.010;5.546;2023-04-24T06:15:49;4.78;;;1.90;;
67140;SDS011;54058;52.010;5.546;2023-04-24T06:18:15;2.08;;;1.80;;
67140;SDS011;54058;52.010;5.546;2023-04-24T06:20:40;3.63;;;1.85;;
67140;SDS011;54058;52.010;5.546;2023-04-24T06:23:06;2.58;;;1.73;;
67140;SDS011;54058;52.010;5.546;2023-04-24T06:25:32;4.38;;;1.95;;
67140;SDS011;54058;52.010;5.546;2023-04-24T06:27:57;2.92;;;2.10;;
67140;SDS011;54058;52.010;5.546;2023-04-24T06:30:23;2.58;;;2.00;;
67140;SDS011;54058;52.010;5.546;2023-04-24T06:32:49;3.33;;;1.90;;
67140;SDS011;54058;52.010;5.546;2023-04-24T06:35:14;2.90;;;1.88;;
67140;SDS011;54058;52.010;5.546;2023-04-24T06:37:40;2.20;;;2.00;;
67140;SDS011;54058;52.010;5.546;2023-04-24T06:40:07;4.20;;;2.10;;
67140;SDS011;54058;52.010;5.546;2023-04-24T06:42:33;5.30;;;1.67;;
67140;SDS011;54058;52.010;5.546;2023-04-24T06:44:59;2.17;;;1.75;;
67140;SDS011;54058;52.010;5.546;2023-04-24T06:47:25;2.90;;;1.50;;
67140;SDS011;54058;52.010;5.546;2023-04-24T06:49:53;3.50;;;1.45;;
67140;SDS011;54058;52.010;5.546;2023-04-24T06:52:20;1.83;;;1.40;;
67140;SDS011;54058;52.010;5.546;2023-04-24T06:54:46;5.57;;;1.15;;
67140;SDS011;54058;52.010;5.546;2023-04-24T06:57:11;4.20;;;1.20;;
67140;SDS011;54058;52.010;5.546;2023-04-24T06:59:37;2.25;;;1.25;;
67140;SDS011;54058;52.010;5.546;2023-04-24T07:02:17;1.70;;;0.93;;
67140;SDS011;54058;52.010;5.546;2023-04-24T07:08:06;2.55;;;1.50;;
67140;SDS011;54058;52.010;5.546;2023-04-24T07:10:32;2.63;;;1.63;;
67140;SDS011;54058;52.010;5.546;2023-04-24T07:13:00;7.45;;;2.20;;
67140;SDS011;54058;52.010;5.546;2023-04-24T07:15:26;5.65;;;2.90;;
67140;SDS011;54058;52.010;5.546;2023-04-24T07:17:52;9.98;;;3.55;;
67140;SDS011;54058;52.010;5.546;2023-04-24T07:20:17;8.18;;;3.65;;
67140;SDS011;54058;52.010;5.546;2023-04-24T07:22:43;8.68;;;3.38;;
67140;SDS011;54058;52.010;5.546;2023-04-24T07:25:09;10.60;;;5.18;;
67140;SDS011;54058;52.010;5.546;2023-04-24T07:27:35;8.35;;;4.80;;
67140;SDS011;54058;52.010;5.546;2023-04-24T07:30:02;14.25;;;5.32;;
67140;SDS011;54058;52.010;5.546;2023-04-24T07:34:54;6.47;;;4.82;;
67140;SDS011;54058;52.010;5.546;2023-04-24T07:37:20;10.88;;;4.78;;
67140;SDS011;54058;52.010;5.546;2023-04-24T07:39:46;10.02;;;5.63;;
67140;SDS011;54058;52.010;5.546;2023-04-24T07:42:12;10.57;;;6.10;;
67140;SDS011;54058;52.010;5.546;2023-04-24T07:44:38;9.90;;;5.65;;
67140;SDS011;54058;52.010;5.546;2023-04-24T07:47:03;12.20;;;6.20;;
67140;SDS011;54058;52.010;5.546;2023-04-24T07:49:29;11.88;;;5.93;;
67140;SDS011;54058;52.010;5.546;2023-04-24T07:51:55;12.23;;;6.40;;
67140;SDS011;54058;52.010;5.546;2023-04-24T07:54:20;11.70;;;5.93;;
67140;SDS011;54058;52.010;5.546;2023-04-24T07:56:46;16.30;;;6.63;;
67140;SDS011;54058;52.010;5.546;2023-04-24T07:59:12;10.95;;;5.55;;
67140;SDS011;54058;52.010;5.546;2023-04-24T08:01:37;13.30;;;6.20;;
67140;SDS011;54058;52.010;5.546;2023-04-24T08:04:03;8.18;;;5.65;;
67140;SDS011;54058;52.010;5.546;2023-04-24T08:06:29;14.52;;;5.68;;
67140;SDS011;54058;52.010;5.546;2023-04-24T08:08:55;8.82;;;5.38;;
67140;SDS011;54058;52.010;5.546;2023-04-24T08:11:21;10.13;;;5.97;;
67140;SDS011;54058;52.010;5.546;2023-04-24T08:13:46;13.00;;;5.75;;
67140;SDS011;54058;52.010;5.546;2023-04-24T08:16:12;10.93;;;5.57;;
67140;SDS011;54058;52.010;5.546;2023-04-24T08:18:38;11.30;;;5.97;;
67140;SDS011;54058;52.010;5.546;2023-04-24T08:21:03;9.68;;;5.20;;
67140;SDS011;54058;52.010;5.546;2023-04-24T08:23:29;9.70;;;5.05;;
67140;SDS011;54058;52.010;5.546;2023-04-24T08:25:55;13.43;;;5.85;;
67140;SDS011;54058;52.010;5.546;2023-04-24T08:28:21;13.60;;;5.38;;
67140;SDS011;54058;52.010;5.546;2023-04-24T08:30:47;10.43;;;4.85;;
67140;SDS011;54058;52.010;5.546;2023-04-24T08:33:13;12.55;;;5.35;;
67140;SDS011;54058;52.010;5.546;2023-04-24T08:35:39;8.68;;;4.43;;
67140;SDS011;54058;52.010;5.546;2023-04-24T08:38:05;13.85;;;3.95;;
67140;SDS011;54058;52.010;5.546;2023-04-24T08:40:30;9.13;;;4.00;;
67140;SDS011;54058;52.010;5.546;2023-04-24T08:42:59;11.95;;;4.22;;
67140;SDS011;54058;52.010;5.546;2023-04-24T08:45:25;13.85;;;4.20;;
67140;SDS011;54058;52.010;5.546;2023-04-24T08:47:51;21.60;;;4.28;;
67140;SDS011;54058;52.010;5.546;2023-04-24T08:50:20;11.52;;;3.60;;
67140;SDS011;54058;52.010;5.546;2023-04-24T08:52:47;22.30;;;3.40;;
67140;SDS011;54058;52.010;5.546;2023-04-24T08:55:15;19.23;;;3.55;;
67140;SDS011;54058;52.010;5.546;2023-04-24T08:57:45;14.18;;;3.13;;
67140;SDS011;54058;52.010;5.546;2023-04-24T09:00:14;14.43;;;2.88;;
67140;SDS011;54058;52.010;5.546;2023-04-24T09:02:41;15.50;;;2.60;;
67140;SDS011;54058;52.010;5.546;2023-04-24T09:05:08;26.90;;;3.53;;
67140;SDS011;54058;52.010;5.546;2023-04-24T09:07:35;17.83;;;2.55;;
67140;SDS011;54058;52.010;5.546;2023-04-24T09:10:04;19.60;;;2.95;;
67140;SDS011;54058;52.010;5.546;2023-04-24T09:14:57;9.40;;;2.43;;
67140;SDS011;54058;52.010;5.546;2023-04-24T09:17:24;16.95;;;2.90;;
67140;SDS011;54058;52.010;5.546;2023-04-24T09:19:52;10.30;;;4.05;;
67140;SDS011;54058;52.010;5.546;2023-04-24T09:22:17;13.52;;;2.22;;
67140;SDS011;54058;52.010;5.546;2023-04-24T09:24:44;12.55;;;2.40;;
67140;SDS011;54058;52.010;5.546;2023-04-24T09:27:10;11.80;;;2.10;;
67140;SDS011;54058;52.010;5.546;2023-04-24T09:29:37;19.20;;;2.80;;
67140;SDS011;54058;52.010;5.546;2023-04-24T09:32:19;13.60;;;2.42;;
67140;SDS011;54058;52.010;5.546;2023-04-24T09:35:04;15.98;;;3.45;;
67140;SDS011;54058;52.010;5.546;2023-04-24T09:37:42;18.77;;;3.72;;
67140;SDS011;54058;52.010;5.546;2023-04-24T09:40:13;9.20;;;2.05;;
67140;SDS011;54058;52.010;5.546;2023-04-24T09:42:52;12.40;;;2.45;;
67140;SDS011;54058;52.010;5.546;2023-04-24T09:45:20;13.60;;;2.38;;
67140;SDS011;54058;52.010;5.546;2023-04-24T09:47:46;12.73;;;2.63;;
67140;SDS011;54058;52.010;5.546;2023-04-24T09:50:16;11.75;;;2.53;;
67140;SDS011;54058;52.010;5.546;2023-04-24T09:52:43;12.07;;;2.78;;
67140;SDS011;54058;52.010;5.546;2023-04-24T09:55:10;10.05;;;2.67;;
67140;SDS011;54058;52.010;5.546;2023-04-24T09:57:48;6.60;;;2.28;;
67140;SDS011;54058;52.010;5.546;2023-04-24T10:00:33;11.93;;;2.70;;
67140;SDS011;54058;52.010;5.546;2023-04-24T10:03:03;10.15;;;2.03;;
67140;SDS011;54058;52.010;5.546;2023-04-24T10:05:30;15.30;;;2.25;;
67140;SDS011;54058;52.010;5.546;2023-04-24T10:08:01;13.20;;;2.92;;
67140;SDS011;54058;52.010;5.546;2023-04-24T10:10:28;9.25;;;2.78;;
67140;SDS011;54058;52.010;5.546;2023-04-24T10:12:54;7.20;;;2.30;;
67140;SDS011;54058;52.010;5.546;2023-04-24T10:15:20;9.90;;;2.30;;
67140;SDS011;54058;52.010;5.546;2023-04-24T10:17:50;10.55;;;2.05;;
67140;SDS011;54058;52.010;5.546;2023-04-24T10:20:20;8.18;;;1.90;;
67140;SDS011;54058;52.010;5.546;2023-04-24T10:22:54;10.30;;;2.13;;
67140;SDS011;54058;52.010;5.546;2023-04-24T10:25:23;7.53;;;1.95;;
67140;SDS011;54058;52.010;5.546;2023-04-24T10:27:53;8.27;;;1.73;;
67140;SDS011;54058;52.010;5.546;2023-04-24T10:30:22;9.68;;;2.00;;
67140;SDS011;54058;52.010;5.546;2023-04-24T10:32:48;6.18;;;1.80;;
67140;SDS011;54058;52.010;5.546;2023-04-24T10:35:15;8.43;;;1.92;;
67140;SDS011;54058;52.010;5.546;2023-04-24T10:37:45;6.38;;;1.38;;
67140;SDS011;54058;52.010;5.546;2023-04-24T10:40:17;10.55;;;1.83;;
67140;SDS011;54058;52.010;5.546;2023-04-24T10:42:48;6.75;;;1.52;;
67140;SDS011;54058;52.010;5.546;2023-04-24T10:45:17;6.35;;;1.75;;
67140;SDS011;54058;52.010;5.546;2023-04-24T10:50:18;7.93;;;1.05;;
67140;SDS011;54058;52.010;5.546;2023-04-24T10:52:48;15.70;;;1.50;;
67140;SDS011;54058;52.010;5.546;2023-04-24T10:58:11;3.67;;;1.02;;
67140;SDS011;54058;52.010;5.546;2023-04-24T11:00:37;10.98;;;1.65;;
67140;SDS011;54058;52.010;5.546;2023-04-24T11:03:22;6.57;;;1.55;;
67140;SDS011;54058;52.010;5.546;2023-04-24T11:05:49;9.85;;;1.52;;
67140;SDS011;54058;52.010;5.546;2023-04-24T11:08:21;5.75;;;1.38;;
67140;SDS011;54058;52.010;5.546;2023-04-24T11:10:58;4.18;;;0.93;;
67140;SDS011;54058;52.010;5.546;2023-04-24T11:13:27;4.05;;;1.13;;
67140;SDS011;54058;52.010;5.546;2023-04-24T11:21:28;3.00;;;0.70;;
67140;SDS011;54058;52.010;5.546;2023-04-24T11:26:55;6.03;;;1.25;;
67140;SDS011;54058;52.010;5.546;2023-04-24T11:29:46;4.25;;;0.75;;
67140;SDS011;54058;52.010;5.546;2023-04-24T11:34:58;5.38;;;0.82;;
67140;SDS011;54058;52.010;5.546;2023-04-24T11:37:34;2.42;;;0.65;;
67140;SDS011;54058;52.010;5.546;2023-04-24T11:40:04;3.50;;;1.23;;
67140;SDS011;54058;52.010;5.546;2023-04-24T11:42:45;2.60;;;0.80;;
67140;SDS011;54058;52.010;5.546;2023-04-24T11:45:13;2.75;;;0.75;;
67140;SDS011;54058;52.010;5.546;2023-04-24T11:47:40;3.38;;;1.23;;
67140;SDS011;54058;52.010;5.546;2023-04-24T11:50:07;6.07;;;0.88;;
67140;SDS011;54058;52.010;5.546;2023-04-24T11:52:38;5.82;;;0.85;;
67140;SDS011;54058;52.010;5.546;2023-04-24T11:57:42;4.57;;;0.93;;
67140;SDS011;54058;52.010;5.546;2023-04-24T12:00:16;3.85;;;1.17;;
67140;SDS011;54058;52.010;5.546;2023-04-24T12:02:43;5.28;;;1.00;;
67140;SDS011;54058;52.010;5.546;2023-04-24T12:05:18;6.83;;;1.00;;
67140;SDS011;54058;52.010;5.546;2023-04-24T12:07:48;2.83;;;1.00;;
67140;SDS011;54058;52.010;5.546;2023-04-24T12:10:14;3.33;;;0.88;;
67140;SDS011;54058;52.010;5.546;2023-04-24T12:12:40;2.90;;;0.68;;
67140;SDS011;54058;52.010;5.546;2023-04-24T12:15:08;4.68;;;1.08;;
67140;SDS011;54058;52.010;5.546;2023-04-24T12:17:35;1.95;;;0.60;;
67140;SDS011;54058;52.010;5.546;2023-04-24T12:20:06;6.57;;;2.58;;
67140;SDS011;54058;52.010;5.546;2023-04-24T12:22:55;3.22;;;0.80;;
67140;SDS011;54058;52.010;5.546;2023-04-24T12:25:22;3.20;;;0.70;;
67140;SDS011;54058;52.010;5.546;2023-04-24T12:27:53;3.00;;;0.68;;
67140;SDS011;54058;52.010;5.546;2023-04-24T12:30:20;1.52;;;0.55;;
67140;SDS011;54058;52.010;5.546;2023-04-24T12:32:47;7.13;;;1.00;;
67140;SDS011;54058;52.010;5.546;2023-04-24T12:35:18;8.90;;;1.08;;
67140;SDS011;54058;52.010;5.546;2023-04-24T12:37:48;2.90;;;0.90;;
67140;SDS011;54058;52.010;5.546;2023-04-24T12:40:15;3.65;;;0.65;;
67140;SDS011;54058;52.010;5.546;2023-04-24T12:42:45;7.45;;;0.90;;
67140;SDS011;54058;52.010;5.546;2023-04-24T12:45:12;6.13;;;0.90;;
67140;SDS011;54058;52.010;5.546;2023-04-24T12:47:39;1.23;;;0.60;;
67140;SDS011;54058;52.010;5.546;2023-04-24T12:50:05;2.85;;;0.68;;
67140;SDS011;54058;52.010;5.546;2023-04-24T12:52:35;5.70;;;1.00;;
67140;SDS011;54058;52.010;5.546;2023-04-24T12:55:01;8.10;;;1.02;;
67140;SDS011;54058;52.010;5.546;2023-04-24T12:57:28;5.10;;;1.15;;
67140;SDS011;54058;52.010;5.546;2023-04-24T13:02:22;7.63;;;1.40;;
67140;SDS011;54058;52.010;5.546;2023-04-24T13:04:48;4.68;;;1.13;;
67140;SDS011;54058;52.010;5.546;2023-04-24T13:07:18;4.13;;;1.00;;
67140;SDS011;54058;52.010;5.546;2023-04-24T13:09:44;9.43;;;1.33;;
67140;SDS011;54058;52.010;5.546;2023-04-24T13:12:11;9.35;;;1.63;;
67140;SDS011;54058;52.010;5.546;2023-04-24T13:14:37;7.97;;;1.67;;
67140;SDS011;54058;52.010;5.546;2023-04-24T13:17:03;4.72;;;1.20;;
67140;SDS011;54058;52.010;5.546;2023-04-24T13:19:29;8.68;;;1.45;;
67140;SDS011;54058;52.010;5.546;2023-04-24T13:22:01;10.38;;;1.60;;
67140;SDS011;54058;52.010;5.546;2023-04-24T13:24:27;7.10;;;1.50;;
67140;SDS011;54058;52.010;5.546;2023-04-24T13:26:53;9.25;;;1.45;;
67140;SDS011;54058;52.010;5.546;2023-04-24T13:29:19;8.73;;;1.45;;
67140;SDS011;54058;52.010;5.546;2023-04-24T13:31:45;11.88;;;1.65;;
67140;SDS011;54058;52.010;5.546;2023-04-24T13:34:12;10.77;;;1.63;;
67140;SDS011;54058;52.010;5.546;2023-04-24T13:36:38;7.05;;;1.35;;
67140;SDS011;54058;52.010;5.546;2023-04-24T13:39:04;8.02;;;1.52;;
67140;SDS011;54058;52.010;5.546;2023-04-24T13:41:32;4.93;;;1.38;;
67140;SDS011;54058;52.010;5.546;2023-04-24T13:43:58;6.15;;;1.60;;
67140;SDS011;54058;52.010;5.546;2023-04-24T13:46:24;6.18;;;1.50;;
67140;SDS011;54058;52.010;5.546;2023-04-24T13:48:50;9.90;;;2.25;;
67140;SDS011;54058;52.010;5.546;2023-04-24T13:51:16;8.10;;;1.70;;
67140;SDS011;54058;52.010;5.546;2023-04-24T13:53:41;9.45;;;1.85;;
67140;SDS011;54058;52.010;5.546;2023-04-24T13:56:07;15.38;;;2.10;;
67140;SDS011;54058;52.010;5.546;2023-04-24T13:58:33;10.48;;;1.95;;
67140;SDS011;54058;52.010;5.546;2023-04-24T14:01:01;10.38;;;2.42;;
67140;SDS011;54058;52.010;5.546;2023-04-24T14:03:28;10.93;;;2.00;;
67140;SDS011;54058;52.010;5.546;2023-04-24T14:05:53;6.18;;;1.95;;
67140;SDS011;54058;52.010;5.546;2023-04-24T14:08:19;5.22;;;1.92;;
67140;SDS011;54058;52.010;5.546;2023-04-24T14:10:47;8.07;;;2.13;;
67140;SDS011;54058;52.010;5.546;2023-04-24T14:13:13;10.25;;;2.35;;
67140;SDS011;54058;52.010;5.546;2023-04-24T14:15:39;12.60;;;2.00;;
67140;SDS011;54058;52.010;5.546;2023-04-24T14:18:05;7.85;;;2.25;;
67140;SDS011;54058;52.010;5.546;2023-04-24T14:20:30;11.23;;;1.95;;
67140;SDS011;54058;52.010;5.546;2023-04-24T14:22:57;8.20;;;1.63;;
67140;SDS011;54058;52.010;5.546;2023-04-24T14:25:25;5.68;;;1.77;;
67140;SDS011;54058;52.010;5.546;2023-04-24T14:27:51;9.40;;;2.05;;
67140;SDS011;54058;52.010;5.546;2023-04-24T14:30:17;10.93;;;1.90;;
67140;SDS011;54058;52.010;5.546;2023-04-24T14:32:43;7.25;;;1.63;;
67140;SDS011;54058;52.010;5.546;2023-04-24T14:35:09;8.93;;;1.80;;
67140;SDS011;54058;52.010;5.546;2023-04-24T14:37:34;10.70;;;2.20;;
67140;SDS011;54058;52.010;5.546;2023-04-24T14:40:01;4.80;;;1.40;;
67140;SDS011;54058;52.010;5.546;2023-04-24T14:42:28;11.15;;;2.00;;
67140;SDS011;54058;52.010;5.546;2023-04-24T14:44:53;11.10;;;2.15;;
67140;SDS011;54058;52.010;5.546;2023-04-24T14:47:20;12.85;;;2.28;;
67140;SDS011;54058;52.010;5.546;2023-04-24T14:49:48;9.52;;;1.80;;
67140;SDS011;54058;52.010;5.546;2023-04-24T14:52:14;11.85;;;2.33;;
67140;SDS011;54058;52.010;5.546;2023-04-24T14:54:40;10.25;;;2.30;;
67140;SDS011;54058;52.010;5.546;2023-04-24T14:57:07;7.97;;;2.20;;
67140;SDS011;54058;52.010;5.546;2023-04-24T14:59:32;10.30;;;2.20;;
67140;SDS011;54058;52.010;5.546;2023-04-24T15:01:58;7.32;;;2.00;;
67140;SDS011;54058;52.010;5.546;2023-04-24T15:04:24;14.52;;;2.05;;
67140;SDS011;54058;52.010;5.546;2023-04-24T15:06:53;6.18;;;1.73;;
67140;SDS011;54058;52.010;5.546;2023-04-24T15:09:20;5.38;;;1.70;;
67140;SDS011;54058;52.010;5.546;2023-04-24T15:11:47;8.00;;;1.63;;
67140;SDS011;54058;52.010;5.546;2023-04-24T15:14:13;5.00;;;1.87;;